Time;durP1;ratioP1;P1;durP2;ratioP2;P2;SDS_P1;SDS_P2;PMS_P1;PMS_P2;Temp;Humidity;BMP_temperature;BMP_pressure;BME280_temperature;BME280_humidity;BME280_pressure;Samples;Min_cycle;Max_cycle;Signal;HPM_P1;HPM_P2
2022/01/25 00:10:14;;;;;;;80.97;38.83;;;5.10;99.90;;;;;;4991159;28;20481;-64
2022/01/25 00:16:08;;;;;;;76.63;39.07;;;5.10;99.90;;;;;;4996494;28;20246;-64
2022/01/25 00:26:40;;;;;;;79.83;39.33;;;5.00;99.90;;;;;;4990924;28;20503;-64
2022/01/25 00:29:13;;;;;;;78.87;37.67;;;5.00;99.90;;;;;;4991270;28;20503;-64
2022/01/25 00:31:43;;;;;;;77.33;38.80;;;4.90;99.90;;;;;;4993794;28;20488;-64
2022/01/25 00:34:12;;;;;;;75.90;37.37;;;4.90;99.90;;;;;;4995139;28;20476;-63
2022/01/25 00:36:41;;;;;;;82.90;39.57;;;4.90;99.90;;;;;;4994972;28;20478;-64
2022/01/25 00:39:09;;;;;;;78.77;37.63;;;5.00;99.90;;;;;;4995344;28;20992;-65
2022/01/25 00:41:37;;;;;;;78.73;39.07;;;4.90;99.90;;;;;;4995115;28;20473;-63
2022/01/25 00:44:06;;;;;;;76.50;38.37;;;4.90;99.90;;;;;;4998274;28;20470;-64
2022/01/25 00:46:35;;;;;;;70.20;34.53;;;4.90;99.90;;;;;;5010564;28;20479;-64
2022/01/25 00:49:04;;;;;;;82.73;39.77;;;5.00;99.90;;;;;;5002220;28;20503;-64
2022/01/25 00:51:58;;;;;;;81.00;39.50;;;5.00;99.90;;;;;;4994640;28;20464;-64
2022/01/25 00:54:29;;;;;;;76.63;38.93;;;5.00;99.90;;;;;;4994475;28;20976;-64
2022/01/25 00:56:58;;;;;;;82.47;39.00;;;4.90;99.90;;;;;;4994671;28;20267;-64
2022/01/25 00:59:30;;;;;;;79.60;39.20;;;4.90;99.90;;;;;;4994065;28;20480;-64
2022/01/25 01:02:00;;;;;;;81.60;39.30;;;4.90;99.90;;;;;;4994585;28;20245;-64
2022/01/25 01:04:31;;;;;;;82.17;40.60;;;5.00;99.90;;;;;;4994197;28;20512;-64
2022/01/25 01:07:01;;;;;;;80.33;39.00;;;5.00;99.90;;;;;;5009964;28;21054;-64
2022/01/25 01:09:33;;;;;;;78.47;39.03;;;5.00;99.90;;;;;;4994199;28;22769;-64
2022/01/25 01:12:10;;;;;;;82.50;40.37;;;4.90;99.90;;;;;;4994024;28;20467;-64
2022/01/25 01:14:54;;;;;;;77.23;37.77;;;4.90;99.90;;;;;;4991065;28;20973;-64
2022/01/25 01:28:48;;;;;;;81.77;38.77;;;4.90;99.90;;;;;;4994319;28;20265;-64
2022/01/25 01:31:37;;;;;;;84.83;40.60;;;4.80;99.90;;;;;;4993895;28;20487;-64
2022/01/25 01:40:07;;;;;;;75.70;37.73;;;4.80;99.90;;;;;;4914098;28;20558;-64
2022/01/25 01:42:56;;;;;;;78.97;37.97;;;4.80;99.90;;;;;;4987119;28;20583;-65
2022/01/25 01:45:35;;;;;;;84.23;40.13;;;4.90;99.90;;;;;;5003588;28;20511;-65
2022/01/25 01:48:07;;;;;;;85.70;43.10;;;4.80;99.90;;;;;;5009381;28;20465;-64
2022/01/25 01:50:36;;;;;;;85.83;40.90;;;4.80;99.90;;;;;;4988049;28;20565;-64
2022/01/25 01:53:06;;;;;;;79.97;40.73;;;4.80;99.90;;;;;;4978235;28;20562;-64
2022/01/25 01:55:36;;;;;;;82.93;39.77;;;4.80;99.90;;;;;;4993682;28;20485;-64
2022/01/25 01:58:05;;;;;;;82.70;40.70;;;4.80;99.90;;;;;;4993592;28;20991;-64
2022/01/25 02:00:37;;;;;;;88.13;41.80;;;4.80;99.90;;;;;;4993085;28;20461;-64
2022/01/25 02:03:07;;;;;;;78.70;38.60;;;4.80;99.90;;;;;;4993257;28;20477;-64
2022/01/25 02:05:36;;;;;;;86.67;41.50;;;4.90;99.90;;;;;;4993092;28;20562;-64
2022/01/25 02:08:05;;;;;;;83.50;40.33;;;4.80;99.90;;;;;;4992882;28;20473;-64
2022/01/25 02:10:34;;;;;;;86.47;42.63;;;4.80;99.90;;;;;;4993103;28;21038;-64
2022/01/25 02:13:06;;;;;;;81.37;39.33;;;4.90;99.90;;;;;;4992758;28;20469;-64
2022/01/25 02:15:37;;;;;;;81.07;40.43;;;4.90;99.90;;;;;;5000335;28;20479;-64
2022/01/25 02:23:42;;;;;;;84.30;39.97;;;4.90;99.90;;;;;;4992615;28;20505;-64
2022/01/25 02:26:11;;;;;;;75.50;36.83;;;4.90;99.90;;;;;;4992923;28;20482;-64
2022/01/25 02:28:42;;;;;;;84.77;41.40;;;5.00;99.90;;;;;;4992579;28;20511;-65
2022/01/25 02:31:12;;;;;;;82.70;40.47;;;4.90;99.90;;;;;;4992903;28;20558;-64
2022/01/25 02:33:42;;;;;;;80.93;39.07;;;4.90;99.90;;;;;;4992819;28;20913;-64
2022/01/25 02:36:14;;;;;;;86.73;41.93;;;4.90;99.90;;;;;;4992946;28;20483;-64
2022/01/25 02:38:42;;;;;;;88.27;42.87;;;4.80;99.90;;;;;;4992684;28;20291;-64
2022/01/25 02:41:10;;;;;;;82.20;41.10;;;4.80;99.90;;;;;;4992763;28;20468;-64
2022/01/25 02:43:39;;;;;;;86.00;41.13;;;4.80;99.90;;;;;;4988809;28;20507;-64
2022/01/25 02:48:58;;;;;;;85.50;41.23;;;4.80;99.90;;;;;;4979338;28;20585;-64
2022/01/25 02:51:30;;;;;;;87.37;41.83;;;4.80;99.90;;;;;;4973060;28;20473;-64
2022/01/25 02:53:58;;;;;;;86.33;43.13;;;4.80;99.90;;;;;;4972402;28;20253;-64
2022/01/25 02:56:28;;;;;;;70.70;34.90;;;4.80;99.90;;;;;;4986734;28;20500;-64
2022/01/25 02:58:56;;;;;;;91.30;42.77;;;4.80;99.90;;;;;;4992442;28;20564;-64
2022/01/25 03:01:25;;;;;;;88.23;41.47;;;4.80;99.90;;;;;;4992237;28;20244;-64
2022/01/25 03:03:53;;;;;;;79.90;38.20;;;4.80;99.90;;;;;;4992221;28;20483;-64
2022/01/25 03:06:23;;;;;;;94.33;43.47;;;4.80;99.90;;;;;;4991688;28;21012;-64
2022/01/25 03:08:53;;;;;;;91.87;41.77;;;4.80;99.90;;;;;;4992002;28;20833;-64
2022/01/25 03:11:23;;;;;;;84.43;42.00;;;4.90;99.90;;;;;;4992133;28;20491;-64
2022/01/25 03:13:53;;;;;;;82.57;40.93;;;4.80;99.90;;;;;;4991782;28;20258;-64
2022/01/25 03:16:30;;;;;;;78.57;38.60;;;4.80;99.90;;;;;;5005713;28;20479;-64
2022/01/25 03:19:01;;;;;;;86.07;42.13;;;4.80;99.90;;;;;;5000381;28;20244;-64
2022/01/25 03:21:36;;;;;;;83.63;41.00;;;4.80;99.90;;;;;;4991786;28;20518;-64
2022/01/25 03:24:07;;;;;;;86.73;41.90;;;4.80;99.90;;;;;;4992041;28;20465;-64
2022/01/25 03:26:36;;;;;;;80.63;41.13;;;4.80;99.90;;;;;;5007297;28;20240;-64
2022/01/25 03:29:05;;;;;;;81.47;39.70;;;4.80;99.90;;;;;;4999477;28;20237;-64
2022/01/25 03:31:33;;;;;;;83.17;40.20;;;4.90;99.90;;;;;;4991686;28;20279;-64
2022/01/25 03:34:01;;;;;;;80.83;36.07;;;4.80;99.90;;;;;;4991781;28;20460;-64
2022/01/25 03:36:30;;;;;;;86.10;39.93;;;4.90;99.90;;;;;;4991765;28;20619;-64
2022/01/25 03:38:58;;;;;;;85.30;38.37;;;4.80;99.90;;;;;;4991796;28;20495;-64
2022/01/25 03:41:27;;;;;;;89.47;40.77;;;4.90;99.90;;;;;;4991065;28;20251;-64
2022/01/25 03:43:56;;;;;;;88.43;38.83;;;5.10;99.90;;;;;;4993678;28;20596;-64
2022/01/25 03:46:34;;;;;;;88.53;41.77;;;5.30;99.90;;;;;;5011169;28;20487;-64
2022/01/25 03:51:48;;;;;;;81.13;37.47;;;5.10;99.90;;;;;;4991233;28;20901;-64
2022/01/25 03:54:17;;;;;;;81.87;41.13;;;5.10;99.90;;;;;;4991387;28;20252;-64
2022/01/25 03:56:47;;;;;;;86.40;41.13;;;5.10;99.90;;;;;;4991445;28;20877;-63
2022/01/25 03:59:15;;;;;;;77.27;38.00;;;5.00;99.90;;;;;;4991312;28;20240;-64
2022/01/25 04:01:44;;;;;;;83.27;41.03;;;5.00;99.90;;;;;;4990706;28;20480;-64
2022/01/25 04:04:15;;;;;;;75.57;38.17;;;4.90;99.90;;;;;;4990781;28;20559;-64
2022/01/25 04:06:48;;;;;;;89.57;41.83;;;4.90;99.90;;;;;;5006580;28;21361;-64
2022/01/25 04:09:16;;;;;;;87.90;40.73;;;4.80;99.90;;;;;;4991511;28;20238;-64
2022/01/25 04:11:45;;;;;;;88.30;42.93;;;4.80;99.90;;;;;;4991318;28;20482;-64
2022/01/25 04:14:14;;;;;;;83.40;40.70;;;4.80;99.90;;;;;;4991336;28;20238;-64
2022/01/25 04:16:45;;;;;;;86.87;41.93;;;4.70;99.90;;;;;;4991120;28;20490;-64
2022/01/25 04:19:21;;;;;;;90.97;43.07;;;4.70;99.90;;;;;;4991341;28;20661;-64
2022/01/25 04:25:02;;;;;;;87.90;41.80;;;4.90;99.90;;;;;;4991070;28;20503;-64
2022/01/25 04:27:31;;;;;;;86.67;41.03;;;4.80;99.90;;;;;;5010633;28;20479;-64
2022/01/25 04:30:01;;;;;;;78.90;40.40;;;5.00;99.90;;;;;;4991303;28;20247;-64
2022/01/25 04:32:40;;;;;;;79.43;39.77;;;4.90;99.90;;;;;;4984588;28;20465;-64
2022/01/25 04:35:13;;;;;;;86.67;42.07;;;4.90;99.90;;;;;;4971966;28;20828;-64
2022/01/25 04:48:57;;;;;;;87.10;41.10;;;4.90;99.90;;;;;;4990752;28;21050;-64
2022/01/25 04:51:44;;;;;;;84.30;40.40;;;4.90;99.90;;;;;;4991022;28;20480;-64
2022/01/25 04:54:20;;;;;;;81.17;39.63;;;4.80;99.90;;;;;;4990685;28;21020;-64
2022/01/25 04:56:55;;;;;;;84.97;39.70;;;4.80;99.90;;;;;;4990983;28;20476;-63
2022/01/25 04:59:29;;;;;;;79.47;39.50;;;4.70;99.90;;;;;;4990974;28;20672;-63
2022/01/25 05:02:00;;;;;;;80.23;40.27;;;4.70;99.90;;;;;;4988699;28;20281;-64
2022/01/25 05:04:33;;;;;;;80.90;40.07;;;4.80;99.90;;;;;;4986686;28;20488;-64
2022/01/25 05:07:12;;;;;;;77.67;37.37;;;4.80;99.90;;;;;;5006275;28;20489;-64
2022/01/25 05:09:43;;;;;;;80.00;37.97;;;4.90;99.90;;;;;;4984004;28;20483;-65
2022/01/25 05:12:12;;;;;;;73.03;34.30;;;4.80;99.90;;;;;;4980628;28;20552;-64
2022/01/25 05:14:55;;;;;;;72.07;34.07;;;4.80;99.90;;;;;;4990638;28;20993;-64
2022/01/25 05:17:34;;;;;;;79.07;38.33;;;4.90;99.90;;;;;;4993024;28;20556;-64
2022/01/25 05:22:44;;;;;;;80.67;39.37;;;4.80;99.90;;;;;;4984332;28;20488;-64
2022/01/25 05:25:12;;;;;;;82.67;40.00;;;4.80;99.90;;;;;;4988146;28;20240;-64
2022/01/25 05:27:40;;;;;;;78.77;38.40;;;4.70;99.90;;;;;;4984531;28;20267;-64
2022/01/25 05:30:10;;;;;;;75.87;38.93;;;4.80;99.90;;;;;;4988323;28;20473;-64
2022/01/25 05:32:39;;;;;;;82.27;39.83;;;4.70;99.90;;;;;;4990173;28;20514;-64
2022/01/25 05:35:08;;;;;;;74.43;38.70;;;4.80;99.90;;;;;;4986013;28;20964;-64
2022/01/25 05:37:41;;;;;;;67.70;32.83;;;4.70;99.90;;;;;;4984603;28;20481;-65
2022/01/25 05:40:15;;;;;;;78.63;37.40;;;4.80;99.90;;;;;;4985656;28;20468;-64
2022/01/25 05:43:53;;;;;;;75.90;38.00;;;4.90;99.90;;;;;;4984208;28;20568;-64
2022/01/25 05:45:56;;;;;;;83.00;39.97;;;5.00;99.90;;;;;;4988140;28;20886;-64
2022/01/25 05:48:28;;;;;;;79.13;38.27;;;4.90;99.90;;;;;;4993390;28;20500;-64
2022/01/25 05:50:57;;;;;;;79.17;35.33;;;4.80;99.90;;;;;;4993719;28;20531;-64
2022/01/25 05:53:25;;;;;;;83.90;39.60;;;4.70;99.90;;;;;;4993470;28;20849;-64
2022/01/25 05:55:54;;;;;;;74.83;34.33;;;4.70;99.90;;;;;;4993660;28;20499;-64
2022/01/25 05:58:22;;;;;;;77.13;35.07;;;4.90;99.90;;;;;;4993451;28;20481;-64
2022/01/25 06:00:51;;;;;;;79.57;38.37;;;4.90;99.90;;;;;;4993137;28;21042;-64
2022/01/25 06:03:19;;;;;;;76.87;38.00;;;4.80;99.90;;;;;;4997471;28;20475;-63
2022/01/25 06:05:49;;;;;;;78.43;39.10;;;5.00;99.90;;;;;;4991106;28;20468;-64
2022/01/25 06:08:19;;;;;;;81.23;39.90;;;4.90;99.90;;;;;;4987317;28;20499;-64
2022/01/25 06:10:47;;;;;;;78.63;38.03;;;4.80;99.90;;;;;;4993262;28;20237;-64
2022/01/25 06:13:15;;;;;;;75.00;37.67;;;4.80;99.90;;;;;;4997413;28;20467;-64
2022/01/25 06:15:43;;;;;;;74.40;38.57;;;4.80;99.90;;;;;;4988309;28;20476;-64
2022/01/25 06:18:11;;;;;;;77.63;38.30;;;4.80;99.90;;;;;;4993228;28;20248;-64
2022/01/25 06:20:40;;;;;;;83.83;33.40;;;4.70;99.90;;;;;;4985592;28;20253;-64
2022/01/25 06:23:09;;;;;;;92.47;39.77;;;5.00;99.90;;;;;;4993336;28;20715;-64
2022/01/25 06:25:38;;;;;;;83.67;39.80;;;5.10;99.90;;;;;;4988925;28;20709;-64
2022/01/25 06:28:06;;;;;;;85.73;34.60;;;4.90;99.90;;;;;;4993047;28;20481;-64
2022/01/25 06:30:35;;;;;;;85.73;40.10;;;5.30;99.90;;;;;;4998541;28;20700;-64
2022/01/25 06:33:09;;;;;;;84.10;38.07;;;5.00;99.90;;;;;;4971280;28;20481;-64
2022/01/25 06:35:37;;;;;;;85.67;39.90;;;5.00;99.90;;;;;;4977674;28;20471;-64
2022/01/25 06:38:06;;;;;;;77.57;38.90;;;4.90;99.90;;;;;;4991291;28;20481;-64
2022/01/25 06:40:35;;;;;;;74.57;37.17;;;4.90;99.90;;;;;;4984657;28;20232;-64
2022/01/25 06:43:03;;;;;;;79.17;39.87;;;5.00;99.90;;;;;;4994724;28;20324;-64
2022/01/25 06:45:31;;;;;;;81.90;40.47;;;4.90;99.90;;;;;;4996332;28;20543;-64
2022/01/25 06:48:00;;;;;;;76.33;36.57;;;4.90;99.90;;;;;;4992688;28;20489;-64
2022/01/25 06:50:28;;;;;;;78.70;38.77;;;4.90;99.90;;;;;;4987619;28;20482;-64
2022/01/25 06:52:56;;;;;;;70.60;35.17;;;4.90;99.90;;;;;;4984802;28;20284;-64
2022/01/25 06:55:41;;;;;;;74.53;37.87;;;5.00;99.90;;;;;;4990458;28;20486;-64
2022/01/25 06:58:10;;;;;;;77.20;37.80;;;4.80;99.90;;;;;;4986269;28;20482;-64
2022/01/25 07:00:39;;;;;;;71.20;37.50;;;4.80;99.90;;;;;;4988731;28;20829;-64
2022/01/25 07:03:08;;;;;;;77.00;37.73;;;4.80;99.90;;;;;;4988978;28;20468;-64
2022/01/25 07:05:37;;;;;;;81.57;38.20;;;4.70;99.90;;;;;;4983440;28;20833;-64
2022/01/25 07:08:06;;;;;;;67.27;31.57;;;4.70;99.90;;;;;;4990667;28;20480;-65
2022/01/25 07:10:34;;;;;;;81.53;37.90;;;4.80;99.90;;;;;;4988209;28;20468;-64
2022/01/25 07:13:03;;;;;;;81.10;37.97;;;4.80;99.90;;;;;;4988887;28;20920;-64
2022/01/25 07:15:31;;;;;;;83.43;38.90;;;4.80;99.90;;;;;;4988197;28;20237;-64
2022/01/25 07:18:00;;;;;;;79.40;37.87;;;4.80;99.90;;;;;;4984129;28;20480;-64
2022/01/25 07:20:28;;;;;;;77.87;37.27;;;4.70;99.90;;;;;;4986793;28;20475;-64
2022/01/25 07:22:56;;;;;;;73.27;36.40;;;4.70;99.90;;;;;;4987412;28;20494;-64
2022/01/25 07:25:25;;;;;;;71.70;31.57;;;4.70;99.90;;;;;;4986674;28;20477;-64
2022/01/25 07:27:54;;;;;;;84.93;38.30;;;4.80;99.90;;;;;;4982957;28;20486;-64
2022/01/25 07:30:23;;;;;;;83.63;39.03;;;5.00;99.90;;;;;;4983253;28;20476;-64
2022/01/25 07:32:51;;;;;;;70.97;34.60;;;4.90;99.90;;;;;;4982585;28;20560;-64
2022/01/25 07:35:19;;;;;;;72.33;37.30;;;4.80;99.90;;;;;;4982420;28;21051;-64
2022/01/25 07:37:55;;;;;;;74.93;36.43;;;4.70;99.90;;;;;;4982570;28;20571;-64
2022/01/25 07:40:26;;;;;;;70.90;37.20;;;4.70;99.90;;;;;;4982238;28;20878;-64
2022/01/25 07:42:56;;;;;;;68.00;33.63;;;4.70;99.90;;;;;;4983662;28;20489;-64
2022/01/25 07:45:35;;;;;;;74.70;33.30;;;4.90;99.90;;;;;;4987939;28;20989;-64
2022/01/25 07:48:07;;;;;;;78.67;38.67;;;4.90;99.90;;;;;;4984258;28;20567;-64
2022/01/25 07:50:36;;;;;;;74.33;37.20;;;4.90;99.90;;;;;;4982295;28;20477;-64
2022/01/25 07:53:06;;;;;;;68.90;33.27;;;4.80;99.90;;;;;;4983003;28;20487;-63
2022/01/25 07:55:34;;;;;;;74.70;37.67;;;5.10;99.90;;;;;;4982753;28;20473;-64
2022/01/25 07:58:02;;;;;;;75.07;37.20;;;5.20;99.90;;;;;;4982896;28;20469;-64
2022/01/25 08:00:32;;;;;;;80.80;37.97;;;5.10;99.90;;;;;;4982566;28;20473;-64
2022/01/25 08:03:01;;;;;;;69.00;35.60;;;4.90;99.90;;;;;;4982977;28;20251;-64
2022/01/25 08:05:48;;;;;;;72.63;35.97;;;4.80;99.90;;;;;;4984277;28;20472;-64
2022/01/25 08:08:30;;;;;;;67.47;34.77;;;4.80;99.90;;;;;;4988048;28;20484;-64
2022/01/25 08:11:21;;;;;;;74.00;36.83;;;4.80;99.90;;;;;;4981851;28;20697;-64
2022/01/25 08:14:12;;;;;;;71.53;35.43;;;4.80;99.90;;;;;;4987172;28;20467;-64
2022/01/25 08:16:50;;;;;;;70.50;36.70;;;4.70;99.90;;;;;;4980366;28;20479;-64
2022/01/25 08:19:21;;;;;;;70.07;37.13;;;4.70;99.90;;;;;;4982632;28;20248;-63
2022/01/25 08:21:58;;;;;;;69.40;35.33;;;4.70;99.90;;;;;;4980359;28;20480;-64
2022/01/25 08:24:48;;;;;;;69.70;35.97;;;4.70;99.90;;;;;;4938371;28;20493;-64
2022/01/25 08:27:30;;;;;;;63.10;33.23;;;4.70;99.90;;;;;;4911957;29;21545;-64
2022/01/25 08:30:14;;;;;;;70.57;35.23;;;4.80;99.90;;;;;;4924305;29;20759;-64
2022/01/25 08:33:03;;;;;;;63.10;32.43;;;4.80;99.90;;;;;;4863433;29;20492;-64
2022/01/25 08:36:04;;;;;;;68.20;34.53;;;4.80;99.90;;;;;;4858406;29;20504;-64
2022/01/25 08:38:51;;;;;;;70.33;34.80;;;4.80;99.90;;;;;;4864352;29;20487;-64
2022/01/25 08:41:43;;;;;;;66.17;33.40;;;4.80;99.90;;;;;;4861470;29;20498;-64
2022/01/25 08:44:26;;;;;;;71.73;34.63;;;4.80;99.90;;;;;;4937511;28;20888;-64
2022/01/25 08:46:59;;;;;;;66.83;34.70;;;4.80;99.90;;;;;;4948555;28;20662;-63
2022/01/25 08:49:32;;;;;;;68.57;35.37;;;4.90;99.90;;;;;;4947825;28;20470;-64
2022/01/25 08:52:12;;;;;;;64.67;34.50;;;4.80;99.90;;;;;;4951745;28;20477;-63
2022/01/25 08:55:00;;;;;;;75.37;39.67;;;4.80;99.90;;;;;;4908811;29;20483;-63
2022/01/25 08:57:31;;;;;;;77.47;42.10;;;4.80;99.90;;;;;;4902530;29;20996;-64
2022/01/25 09:00:18;;;;;;;86.33;51.20;;;4.80;99.90;;;;;;4893826;29;20489;-63
2022/01/25 09:02:46;;;;;;;82.23;45.13;;;4.80;99.90;;;;;;4896389;29;20480;-64
2022/01/25 09:05:15;;;;;;;86.07;50.37;;;4.90;99.90;;;;;;4885420;29;20515;-64
2022/01/25 09:07:44;;;;;;;79.33;44.97;;;4.90;99.90;;;;;;4885875;29;20852;-63
2022/01/25 09:10:12;;;;;;;75.97;43.70;;;4.90;99.90;;;;;;4907695;28;20469;-64
2022/01/25 09:12:40;;;;;;;74.03;39.73;;;4.90;99.90;;;;;;4947321;28;20839;-65
2022/01/25 09:15:09;;;;;;;70.67;37.30;;;4.90;99.90;;;;;;4953254;28;20579;-64
2022/01/25 09:17:37;;;;;;;68.60;37.00;;;4.90;99.90;;;;;;4953160;28;20823;-64
2022/01/25 09:20:06;;;;;;;65.27;35.30;;;4.90;99.90;;;;;;4949430;28;20258;-63
2022/01/25 09:22:35;;;;;;;70.57;38.27;;;4.90;99.90;;;;;;4948440;28;20270;-64
2022/01/25 09:25:24;;;;;;;70.80;37.77;;;4.90;99.90;;;;;;4953234;28;20254;-63
2022/01/25 09:27:52;;;;;;;68.93;37.17;;;4.90;99.90;;;;;;4992321;28;20468;-63
2022/01/25 09:30:20;;;;;;;66.93;36.13;;;4.90;99.90;;;;;;4974442;28;20246;-64
2022/01/25 09:32:49;;;;;;;68.63;36.90;;;4.90;99.90;;;;;;4974347;28;20476;-64
2022/01/25 09:35:17;;;;;;;65.77;35.33;;;5.00;99.90;;;;;;4974881;28;20569;-64
2022/01/25 09:37:47;;;;;;;65.00;35.10;;;5.00;99.90;;;;;;4974183;28;20474;-64
2022/01/25 09:40:15;;;;;;;78.73;45.63;;;5.00;99.90;;;;;;4967116;28;20245;-64
2022/01/25 09:42:44;;;;;;;76.20;45.80;;;5.00;99.90;;;;;;4976891;28;21001;-63
2022/01/25 09:45:17;;;;;;;69.07;42.93;;;5.00;99.90;;;;;;4970812;28;20281;-64
2022/01/25 09:47:45;;;;;;;72.33;42.13;;;5.00;99.90;;;;;;4974134;28;20654;-64
2022/01/25 09:50:13;;;;;;;70.90;38.43;;;5.00;99.90;;;;;;4968089;28;20634;-64
2022/01/25 09:52:43;;;;;;;63.37;35.37;;;5.00;99.90;;;;;;4963814;28;20630;-64
2022/01/25 09:55:14;;;;;;;68.00;37.07;;;5.00;99.90;;;;;;4968091;28;20468;-65
2022/01/25 09:57:42;;;;;;;64.70;37.13;;;5.10;99.90;;;;;;4971820;28;20477;-64
2022/01/25 10:00:13;;;;;;;66.73;35.47;;;5.10;99.90;;;;;;4973000;28;20485;-65
2022/01/25 10:02:48;;;;;;;64.73;36.30;;;5.20;99.90;;;;;;4972919;28;20320;-64
2022/01/25 10:05:24;;;;;;;61.30;33.97;;;5.20;99.90;;;;;;4967923;28;20478;-64
2022/01/25 10:08:00;;;;;;;63.30;33.13;;;5.20;99.90;;;;;;4980768;28;20241;-63
2022/01/25 10:10:31;;;;;;;59.47;32.87;;;5.20;99.90;;;;;;4985429;28;20472;-64
2022/01/25 10:13:10;;;;;;;59.17;33.53;;;5.30;99.90;;;;;;4987233;28;20465;-64
2022/01/25 10:15:40;;;;;;;60.47;32.57;;;5.20;99.90;;;;;;4985363;28;20563;-64
2022/01/25 10:18:16;;;;;;;56.20;30.97;;;5.20;99.90;;;;;;4983710;28;20271;-64
2022/01/25 10:20:45;;;;;;;58.83;31.80;;;5.20;99.90;;;;;;4962155;28;20289;-64
2022/01/25 10:23:18;;;;;;;60.70;32.73;;;5.20;99.90;;;;;;4983511;28;20473;-64
2022/01/25 10:25:49;;;;;;;58.80;31.30;;;5.20;99.90;;;;;;4989113;28;20280;-64
2022/01/25 10:28:24;;;;;;;60.63;31.63;;;5.20;99.90;;;;;;4983922;28;20887;-65
2022/01/25 10:30:54;;;;;;;53.67;29.10;;;5.20;99.90;;;;;;4966063;28;20242;-64
2022/01/25 10:33:29;;;;;;;57.07;31.03;;;5.30;99.90;;;;;;4967356;28;20662;-63
2022/01/25 10:36:00;;;;;;;57.27;30.63;;;5.30;99.90;;;;;;4967395;28;20241;-64
2022/01/25 10:38:31;;;;;;;57.30;29.50;;;5.30;99.90;;;;;;4966974;28;20497;-64
2022/01/25 10:41:05;;;;;;;57.30;29.33;;;5.40;99.90;;;;;;4966205;28;20529;-64
2022/01/25 10:43:35;;;;;;;53.27;29.73;;;5.40;99.90;;;;;;4967342;28;20304;-64
2022/01/25 10:46:17;;;;;;;53.53;29.70;;;5.50;99.90;;;;;;4966630;28;20312;-64
2022/01/25 10:48:49;;;;;;;53.50;30.37;;;5.50;99.90;;;;;;4966862;28;20487;-64
2022/01/25 10:51:21;;;;;;;52.33;27.60;;;5.50;99.90;;;;;;4966291;28;20292;-64
2022/01/25 10:54:07;;;;;;;55.37;29.20;;;5.50;99.90;;;;;;4967235;28;20249;-64
2022/01/25 10:56:40;;;;;;;58.43;33.07;;;5.50;99.90;;;;;;4966792;28;20486;-65
2022/01/25 10:59:11;;;;;;;60.70;35.67;;;5.60;99.90;;;;;;4966823;28;20297;-64
2022/01/25 11:01:48;;;;;;;61.20;36.43;;;5.60;99.90;;;;;;4966208;28;20337;-64
2022/01/25 11:04:18;;;;;;;56.80;35.37;;;5.60;99.90;;;;;;4986302;28;20245;-64
2022/01/25 11:06:56;;;;;;;54.47;34.87;;;5.60;99.90;;;;;;4985744;28;20538;-64
2022/01/25 11:09:26;;;;;;;59.43;34.73;;;5.60;99.90;;;;;;4986522;28;20253;-64
2022/01/25 11:11:58;;;;;;;58.97;33.03;;;5.70;99.90;;;;;;4985421;28;20263;-64
2022/01/25 11:17:11;;;;;;;51.40;30.57;;;5.70;99.90;;;;;;4985401;28;20242;-64
2022/01/25 11:19:41;;;;;;;50.23;29.07;;;5.70;99.90;;;;;;4985653;28;21543;-65
2022/01/25 11:22:12;;;;;;;52.03;29.17;;;5.80;99.90;;;;;;4985441;28;20273;-64
2022/01/25 11:24:41;;;;;;;47.27;26.33;;;5.80;99.90;;;;;;4986049;28;21296;-65
2022/01/25 11:27:11;;;;;;;49.37;27.60;;;5.80;99.90;;;;;;4987266;28;20732;-63
2022/01/25 11:29:42;;;;;;;48.57;25.83;;;5.80;99.90;;;;;;4986110;28;20294;-64
2022/01/25 11:32:13;;;;;;;45.97;27.40;;;5.80;99.90;;;;;;4985416;28;20483;-64
2022/01/25 11:34:44;;;;;;;49.10;26.23;;;5.90;99.90;;;;;;4985946;28;20253;-65
2022/01/25 11:37:13;;;;;;;45.53;25.83;;;5.80;99.90;;;;;;4986696;28;20688;-64
2022/01/25 11:39:45;;;;;;;46.73;25.57;;;5.80;99.90;;;;;;4985791;28;20516;-65
2022/01/25 11:42:17;;;;;;;46.67;25.17;;;5.80;99.90;;;;;;4984926;28;20889;-65
2022/01/25 11:44:49;;;;;;;48.67;26.03;;;5.80;99.90;;;;;;4985616;28;20664;-63
2022/01/25 11:47:20;;;;;;;47.33;26.67;;;5.90;99.90;;;;;;4985979;28;20273;-65
2022/01/25 11:49:54;;;;;;;46.43;24.87;;;5.90;99.90;;;;;;4985533;28;20569;-64
2022/01/25 11:52:24;;;;;;;41.23;24.67;;;5.90;99.90;;;;;;4984762;28;20624;-65
2022/01/25 11:54:54;;;;;;;43.67;25.90;;;5.90;99.90;;;;;;4985856;28;20333;-64
2022/01/25 11:57:26;;;;;;;45.97;25.53;;;6.00;99.90;;;;;;4985629;28;20237;-64
2022/01/25 11:59:56;;;;;;;45.27;26.17;;;6.00;99.90;;;;;;4985698;28;20257;-64
2022/01/25 12:02:40;;;;;;;42.53;23.90;;;6.00;99.90;;;;;;4984575;28;20487;-64
2022/01/25 12:05:11;;;;;;;49.07;24.73;;;6.00;99.90;;;;;;4986427;28;20335;-64
2022/01/25 12:07:41;;;;;;;41.27;23.87;;;6.00;99.90;;;;;;4986060;28;21133;-64
2022/01/25 12:10:36;;;;;;;43.97;24.20;;;6.00;99.90;;;;;;4986387;28;20600;-63
2022/01/25 12:13:18;;;;;;;46.67;22.87;;;5.90;99.90;;;;;;4976216;28;20226;-64
2022/01/25 12:16:07;;;;;;;43.93;24.67;;;5.90;99.90;;;;;;4985207;28;20822;-64
2022/01/25 12:19:00;;;;;;;39.57;22.53;;;5.90;99.90;;;;;;4985487;28;20792;-64
2022/01/25 12:21:54;;;;;;;43.77;22.97;;;5.90;99.90;;;;;;4983499;28;20282;-63
2022/01/25 12:24:27;;;;;;;39.23;22.40;;;5.90;99.90;;;;;;4985415;28;20572;-64
2022/01/25 12:26:59;;;;;;;37.80;21.80;;;5.90;99.90;;;;;;4989055;28;20241;-63
2022/01/25 12:29:41;;;;;;;35.07;20.67;;;5.90;99.90;;;;;;4989093;28;20276;-64
2022/01/25 12:32:23;;;;;;;35.80;20.07;;;5.90;99.90;;;;;;4988704;28;20472;-64
2022/01/25 12:35:08;;;;;;;40.70;22.37;;;5.90;99.90;;;;;;4989291;28;20328;-64
2022/01/25 12:37:55;;;;;;;40.63;20.93;;;5.90;99.90;;;;;;4985717;28;20321;-65
2022/01/25 12:40:45;;;;;;;40.60;21.53;;;6.00;99.90;;;;;;4984402;28;20247;-64
2022/01/25 12:43:18;;;;;;;37.40;20.90;;;6.00;99.90;;;;;;4975457;28;20489;-64
2022/01/25 12:45:49;;;;;;;41.10;23.20;;;6.00;99.90;;;;;;4984834;28;20260;-64
2022/01/25 12:48:20;;;;;;;39.83;22.13;;;6.00;99.90;;;;;;4985307;28;20254;-64
2022/01/25 12:50:52;;;;;;;37.97;21.23;;;6.00;99.90;;;;;;4984171;28;20337;-64
2022/01/25 12:53:22;;;;;;;36.40;20.80;;;5.90;99.90;;;;;;4989149;28;20261;-63
2022/01/25 12:55:53;;;;;;;39.47;22.47;;;5.90;99.90;;;;;;4988997;28;20249;-65
2022/01/25 12:58:23;;;;;;;36.70;20.93;;;5.90;99.90;;;;;;4988534;28;20713;-65
2022/01/25 13:00:53;;;;;;;36.80;21.00;;;5.90;99.90;;;;;;4987301;28;20249;-64
2022/01/25 13:03:29;;;;;;;39.57;21.63;;;6.00;99.90;;;;;;4988520;28;20256;-64
2022/01/25 13:06:03;;;;;;;38.73;21.03;;;6.00;99.90;;;;;;4988720;28;20763;-65
2022/01/25 13:08:35;;;;;;;40.20;21.57;;;6.00;99.90;;;;;;4988284;28;20238;-64
2022/01/25 13:11:25;;;;;;;38.53;21.13;;;6.00;99.90;;;;;;4987185;28;20242;-65
2022/01/25 13:14:15;;;;;;;33.27;19.77;;;5.90;99.90;;;;;;4988705;28;20345;-64
2022/01/25 13:16:52;;;;;;;29.30;18.27;;;6.00;99.90;;;;;;4988480;28;20594;-65
2022/01/25 13:19:25;;;;;;;31.53;18.50;;;6.00;99.90;;;;;;4988758;28;20702;-64
2022/01/25 13:21:59;;;;;;;36.47;20.33;;;5.90;99.90;;;;;;4986226;28;20734;-64
2022/01/25 13:24:43;;;;;;;37.70;21.17;;;5.90;99.90;;;;;;4988289;28;20246;-63
2022/01/25 13:27:15;;;;;;;37.20;21.43;;;6.00;99.90;;;;;;4988188;28;20246;-64
2022/01/25 13:32:46;;;;;;;30.77;19.17;;;6.00;99.90;;;;;;4975595;28;20700;-64
2022/01/25 13:35:22;;;;;;;35.60;21.43;;;6.00;99.90;;;;;;4988466;28;20328;-64
2022/01/25 13:38:08;;;;;;;36.10;21.63;;;5.90;99.90;;;;;;4986857;28;20257;-65
2022/01/25 13:40:46;;;;;;;37.57;21.33;;;5.90;99.90;;;;;;4986568;28;20329;-64
2022/01/25 13:45:43;;;;;;;35.67;19.87;;;5.90;99.90;;;;;;4987591;28;20686;-64
2022/01/25 13:46:24;;;;;;;35.47;19.27;;;5.90;99.90;;;;;;4987570;28;20237;-63
2022/01/25 13:48:55;;;;;;;34.97;20.67;;;6.10;99.90;;;;;;4987385;28;20716;-62
2022/01/25 13:51:25;;;;;;;38.63;22.47;;;6.10;99.90;;;;;;4985779;28;20729;-63
2022/01/25 13:53:57;;;;;;;41.40;24.00;;;6.00;99.90;;;;;;4987853;28;21072;-63
2022/01/25 13:56:27;;;;;;;38.90;21.93;;;6.00;99.90;;;;;;4987764;28;20257;-64
2022/01/25 13:58:56;;;;;;;36.17;21.60;;;6.00;99.90;;;;;;4987445;28;20725;-63
2022/01/25 14:01:27;;;;;;;38.43;22.03;;;6.00;99.90;;;;;;4985423;28;20258;-64
2022/01/25 14:03:58;;;;;;;33.30;21.77;;;6.00;99.90;;;;;;4987815;28;20284;-63
2022/01/25 14:06:30;;;;;;;35.70;21.07;;;5.90;99.90;;;;;;4987341;28;20246;-63
2022/01/25 14:09:08;;;;;;;36.47;20.93;;;5.90;99.90;;;;;;4987729;28;20260;-63
2022/01/25 14:11:54;;;;;;;35.30;20.70;;;5.90;99.90;;;;;;4985189;28;20251;-62
2022/01/25 14:23:17;;;;;;;39.77;23.53;;;6.00;99.90;;;;;;4954329;28;20598;-62
2022/01/25 14:25:47;;;;;;;41.40;25.93;;;5.90;99.90;;;;;;4987301;28;20511;-63